Time;durP1;ratioP1;P1;durP2;ratioP2;P2;SDS_P1;SDS_P2;PMS_P1;PMS_P2;Temp;Humidity;BMP_temperature;BMP_pressure;BME280_temperature;BME280_humidity;BME280_pressure;Samples;Min_cycle;Max_cycle;Signal;HPM_P1;HPM_P2
2024/01/26 00:00:31;;;;;;;12.20;2.70;;;;;;;;;;5045942;28;20212;-82
2024/01/26 00:02:57;;;;;;;10.97;2.80;;;;;;;;;;5040596;28;20234;-80
2024/01/26 00:05:23;;;;;;;12.87;2.63;;;;;;;;;;5045678;28;20208;-81
2024/01/26 00:07:49;;;;;;;7.40;3.33;;;;;;;;;;5045771;28;20216;-82
2024/01/26 00:10:15;;;;;;;7.87;2.83;;;;;;;;;;5046891;28;20203;-80
2024/01/26 00:12:41;;;;;;;8.57;3.30;;;;;;;;;;5044460;28;20208;-80
2024/01/26 00:15:07;;;;;;;16.30;3.60;;;;;;;;;;5044596;28;20239;-80
2024/01/26 00:17:33;;;;;;;7.67;3.07;;;;;;;;;;5048294;28;20580;-80
2024/01/26 00:19:59;;;;;;;15.00;3.67;;;;;;;;;;5047518;28;20211;-79
2024/01/26 00:22:25;;;;;;;15.63;3.27;;;;;;;;;;5049353;28;20195;-81
2024/01/26 00:24:51;;;;;;;12.07;3.20;;;;;;;;;;5048518;28;20216;-81
2024/01/26 00:27:17;;;;;;;10.17;2.70;;;;;;;;;;5046985;28;20863;-81
2024/01/26 00:29:43;;;;;;;5.67;2.87;;;;;;;;;;5042629;28;20184;-80
2024/01/26 00:32:09;;;;;;;13.73;2.90;;;;;;;;;;5042948;28;20207;-80
2024/01/26 00:34:36;;;;;;;13.60;3.27;;;;;;;;;;5043574;28;20211;-80
2024/01/26 00:37:02;;;;;;;9.10;3.03;;;;;;;;;;5035974;28;20220;-80
2024/01/26 00:39:28;;;;;;;16.27;3.47;;;;;;;;;;5047344;28;20315;-79
2024/01/26 00:41:54;;;;;;;14.07;3.20;;;;;;;;;;5039436;28;20566;-79
2024/01/26 00:44:20;;;;;;;11.90;3.13;;;;;;;;;;5040097;28;20207;-79
2024/01/26 00:46:46;;;;;;;15.53;3.23;;;;;;;;;;5038429;28;20254;-80
2024/01/26 00:49:12;;;;;;;9.43;3.50;;;;;;;;;;5036099;28;20283;-79
2024/01/26 00:51:38;;;;;;;11.37;3.07;;;;;;;;;;5040742;28;20215;-79
2024/01/26 00:54:04;;;;;;;13.07;3.10;;;;;;;;;;5044000;28;20188;-80
2024/01/26 00:56:30;;;;;;;22.17;2.90;;;;;;;;;;5042655;28;20215;-79
2024/01/26 00:58:56;;;;;;;11.83;3.27;;;;;;;;;;5040440;28;20207;-79
2024/01/26 01:01:24;;;;;;;7.97;2.80;;;;;;;;;;5037517;28;20195;-79
2024/01/26 01:03:50;;;;;;;6.57;2.87;;;;;;;;;;5037221;28;20725;-81
2024/01/26 01:06:16;;;;;;;10.97;3.33;;;;;;;;;;5039102;28;20199;-80
2024/01/26 01:08:43;;;;;;;17.63;3.00;;;;;;;;;;5040096;28;20262;-79
2024/01/26 01:11:09;;;;;;;11.87;3.87;;;;;;;;;;5039479;28;20887;-80
2024/01/26 01:13:36;;;;;;;8.93;2.77;;;;;;;;;;5037209;28;20295;-81
2024/01/26 01:16:02;;;;;;;11.47;2.90;;;;;;;;;;5053009;28;20738;-82
2024/01/26 01:18:28;;;;;;;16.60;2.90;;;;;;;;;;5056893;28;20216;-80
2024/01/26 01:20:54;;;;;;;10.03;3.93;;;;;;;;;;5046010;28;20222;-80
2024/01/26 01:23:20;;;;;;;17.23;3.20;;;;;;;;;;5057632;28;20208;-81
2024/01/26 01:25:46;;;;;;;13.17;2.80;;;;;;;;;;5056662;28;20205;-80
2024/01/26 01:28:12;;;;;;;18.17;3.80;;;;;;;;;;5049627;28;20196;-81
2024/01/26 01:30:38;;;;;;;9.87;3.73;;;;;;;;;;5049090;28;20203;-80
2024/01/26 01:33:04;;;;;;;18.40;3.40;;;;;;;;;;5059705;28;20195;-80
2024/01/26 01:35:31;;;;;;;12.80;3.33;;;;;;;;;;5050195;28;20197;-80
2024/01/26 01:37:56;;;;;;;12.07;4.37;;;;;;;;;;5053379;28;20362;-80
2024/01/26 01:40:22;;;;;;;11.13;3.23;;;;;;;;;;5034726;28;20223;-80
2024/01/26 01:42:48;;;;;;;10.03;3.30;;;;;;;;;;5042560;28;20216;-80
2024/01/26 01:45:14;;;;;;;15.73;3.50;;;;;;;;;;5031711;28;20255;-81
2024/01/26 01:47:43;;;;;;;13.97;3.23;;;;;;;;;;5037271;28;20192;-80
2024/01/26 01:50:10;;;;;;;9.20;3.60;;;;;;;;;;5042698;28;20828;-81
2024/01/26 01:52:40;;;;;;;12.10;2.90;;;;;;;;;;5041980;28;20206;-81
2024/01/26 01:55:08;;;;;;;13.57;3.23;;;;;;;;;;5033451;28;20197;-80
2024/01/26 01:57:36;;;;;;;14.47;3.47;;;;;;;;;;5043492;28;20226;-81
2024/01/26 02:00:04;;;;;;;10.37;3.93;;;;;;;;;;5042377;28;20176;-80
2024/01/26 02:02:30;;;;;;;15.47;4.03;;;;;;;;;;5041372;28;20292;-81
2024/01/26 02:04:56;;;;;;;19.37;4.50;;;;;;;;;;5039874;28;20216;-80
2024/01/26 02:07:22;;;;;;;16.47;3.47;;;;;;;;;;5039290;28;20207;-81
2024/01/26 02:09:48;;;;;;;8.80;3.47;;;;;;;;;;5037009;28;20215;-81
2024/01/26 02:12:14;;;;;;;12.43;3.60;;;;;;;;;;5038569;28;20173;-81
2024/01/26 02:14:40;;;;;;;16.20;3.73;;;;;;;;;;5045744;28;20192;-81
2024/01/26 02:17:07;;;;;;;8.63;3.47;;;;;;;;;;5040739;28;20224;-81
2024/01/26 02:19:33;;;;;;;12.17;3.70;;;;;;;;;;5043993;28;20268;-82
2024/01/26 02:21:59;;;;;;;10.27;3.60;;;;;;;;;;5041413;28;20644;-81
2024/01/26 02:24:25;;;;;;;13.27;3.17;;;;;;;;;;5043460;28;20250;-81
2024/01/26 02:26:52;;;;;;;13.40;4.17;;;;;;;;;;5038329;28;20183;-80
2024/01/26 02:29:18;;;;;;;15.17;3.47;;;;;;;;;;5041664;28;20211;-80
2024/01/26 02:31:44;;;;;;;13.97;3.10;;;;;;;;;;5039641;28;20234;-81
2024/01/26 02:34:12;;;;;;;11.20;3.20;;;;;;;;;;5041084;28;20275;-80
2024/01/26 02:36:39;;;;;;;9.53;3.63;;;;;;;;;;5044798;28;20219;-80
2024/01/26 02:39:05;;;;;;;15.77;3.83;;;;;;;;;;5040476;28;20236;-81
2024/01/26 02:41:32;;;;;;;14.53;4.27;;;;;;;;;;5043227;28;20310;-83
2024/01/26 02:43:58;;;;;;;13.47;3.53;;;;;;;;;;5042194;28;20235;-81
2024/01/26 02:46:24;;;;;;;11.07;3.90;;;;;;;;;;5042403;28;20254;-81
2024/01/26 02:48:50;;;;;;;11.50;4.10;;;;;;;;;;5042025;28;20868;-81
2024/01/26 02:51:16;;;;;;;10.03;3.83;;;;;;;;;;5042690;28;20792;-80
2024/01/26 02:53:42;;;;;;;9.70;3.40;;;;;;;;;;5042619;28;20188;-80
2024/01/26 02:56:08;;;;;;;17.17;4.53;;;;;;;;;;5040223;28;20213;-78
2024/01/26 02:58:35;;;;;;;8.07;4.53;;;;;;;;;;5039056;28;20607;-79
2024/01/26 03:01:04;;;;;;;19.97;4.57;;;;;;;;;;5040795;28;20220;-79
2024/01/26 03:03:30;;;;;;;12.67;3.67;;;;;;;;;;5047331;28;20234;-79
2024/01/26 03:05:56;;;;;;;15.90;4.03;;;;;;;;;;5038885;28;20648;-80
2024/01/26 03:08:22;;;;;;;15.73;4.10;;;;;;;;;;5044538;28;20214;-80
2024/01/26 03:10:48;;;;;;;13.90;4.10;;;;;;;;;;5040901;28;20294;-77
2024/01/26 03:13:16;;;;;;;15.67;4.30;;;;;;;;;;5038422;28;20208;-79
2024/01/26 03:15:42;;;;;;;11.57;3.93;;;;;;;;;;5032599;28;20272;-80
2024/01/26 03:18:08;;;;;;;12.60;3.50;;;;;;;;;;5035176;28;20674;-79
2024/01/26 03:20:34;;;;;;;10.20;4.53;;;;;;;;;;5040281;28;20246;-80
2024/01/26 03:23:00;;;;;;;11.13;3.43;;;;;;;;;;5041165;28;20213;-80
2024/01/26 03:25:26;;;;;;;13.97;4.00;;;;;;;;;;5030331;28;20200;-79
2024/01/26 03:27:52;;;;;;;19.80;4.90;;;;;;;;;;5043644;28;20212;-79
2024/01/26 03:30:18;;;;;;;11.47;4.30;;;;;;;;;;5033660;28;20570;-79
2024/01/26 03:32:44;;;;;;;12.70;4.03;;;;;;;;;;5038319;28;20238;-80
2024/01/26 03:35:10;;;;;;;14.13;5.23;;;;;;;;;;5040383;28;20216;-80
2024/01/26 03:37:38;;;;;;;12.37;3.80;;;;;;;;;;5039656;28;20302;-80
2024/01/26 03:40:04;;;;;;;9.93;3.90;;;;;;;;;;5033949;28;20638;-79
2024/01/26 03:42:30;;;;;;;21.67;4.77;;;;;;;;;;5043282;28;20246;-78
2024/01/26 03:44:56;;;;;;;13.80;4.13;;;;;;;;;;5030165;28;20200;-79
2024/01/26 03:47:22;;;;;;;11.40;4.13;;;;;;;;;;5039324;28;20205;-79
2024/01/26 03:49:48;;;;;;;13.70;3.53;;;;;;;;;;5040636;28;20567;-79
2024/01/26 03:52:14;;;;;;;18.30;4.23;;;;;;;;;;5029078;28;20208;-79
2024/01/26 03:54:40;;;;;;;12.13;3.47;;;;;;;;;;5052803;28;20708;-80
2024/01/26 03:57:06;;;;;;;10.60;3.50;;;;;;;;;;5049005;28;20191;-80
2024/01/26 03:59:32;;;;;;;11.30;3.90;;;;;;;;;;5052920;28;20208;-80
2024/01/26 04:01:58;;;;;;;11.97;3.83;;;;;;;;;;5052367;28;20204;-79
2024/01/26 04:04:24;;;;;;;11.90;4.23;;;;;;;;;;5045637;28;20295;-80
2024/01/26 04:06:50;;;;;;;16.03;4.10;;;;;;;;;;5062489;28;20211;-80
2024/01/26 04:09:16;;;;;;;15.33;3.93;;;;;;;;;;5049018;28;20184;-81
2024/01/26 04:11:42;;;;;;;14.63;4.43;;;;;;;;;;5059942;28;20239;-79
2024/01/26 04:14:08;;;;;;;11.87;4.30;;;;;;;;;;5052534;28;20208;-82
2024/01/26 04:16:34;;;;;;;13.47;3.57;;;;;;;;;;5051095;28;20220;-80
2024/01/26 04:19:00;;;;;;;12.50;4.33;;;;;;;;;;5056659;28;20227;-79
2024/01/26 04:21:26;;;;;;;14.53;3.83;;;;;;;;;;5058853;28;20210;-80
2024/01/26 04:23:52;;;;;;;17.80;3.93;;;;;;;;;;5062407;28;20211;-79
2024/01/26 04:26:18;;;;;;;10.93;4.53;;;;;;;;;;5051446;28;20275;-79
2024/01/26 04:28:45;;;;;;;12.73;3.73;;;;;;;;;;5052519;28;20213;-79
2024/01/26 04:31:11;;;;;;;13.97;4.60;;;;;;;;;;5040010;28;20713;-80
2024/01/26 04:33:37;;;;;;;10.60;4.00;;;;;;;;;;5045917;28;20215;-80
2024/01/26 04:36:03;;;;;;;14.57;3.90;;;;;;;;;;5040424;28;20176;-79
2024/01/26 04:38:30;;;;;;;13.90;4.07;;;;;;;;;;5044383;28;20296;-79
2024/01/26 04:40:56;;;;;;;14.80;3.90;;;;;;;;;;5040531;28;20655;-79
2024/01/26 04:43:22;;;;;;;12.80;4.53;;;;;;;;;;5034944;28;20271;-79
2024/01/26 04:45:48;;;;;;;8.53;4.17;;;;;;;;;;5036414;28;20235;-80
2024/01/26 04:48:14;;;;;;;16.97;5.17;;;;;;;;;;5040294;28;20214;-81
2024/01/26 04:50:40;;;;;;;13.23;5.00;;;;;;;;;;5038766;28;20179;-80
2024/01/26 04:53:06;;;;;;;16.73;4.43;;;;;;;;;;5042851;28;20220;-79
2024/01/26 04:55:32;;;;;;;14.03;5.00;;;;;;;;;;5043338;28;20224;-80
2024/01/26 04:57:58;;;;;;;15.33;4.97;;;;;;;;;;5039424;28;20312;-79
2024/01/26 05:00:24;;;;;;;14.43;5.35;;;;;;;;;;5041738;28;20389;-79
2024/01/26 05:02:50;;;;;;;16.40;4.83;;;;;;;;;;5038833;28;20191;-79
2024/01/26 05:05:16;;;;;;;11.87;4.10;;;;;;;;;;5037846;28;20258;-80
2024/01/26 05:07:43;;;;;;;14.10;4.80;;;;;;;;;;5046704;28;20736;-80
2024/01/26 05:10:10;;;;;;;12.80;4.03;;;;;;;;;;5038343;28;20211;-79
2024/01/26 05:12:36;;;;;;;10.23;3.70;;;;;;;;;;5042145;28;20211;-80
2024/01/26 05:15:02;;;;;;;12.73;4.47;;;;;;;;;;5027146;28;20295;-78
2024/01/26 05:17:28;;;;;;;12.40;4.07;;;;;;;;;;5038034;28;20211;-79
2024/01/26 05:19:54;;;;;;;12.77;4.60;;;;;;;;;;5042084;28;20204;-78
2024/01/26 05:22:20;;;;;;;9.40;4.00;;;;;;;;;;5034073;28;20231;-79
2024/01/26 05:24:46;;;;;;;16.10;3.93;;;;;;;;;;5038812;28;20610;-79
2024/01/26 05:27:12;;;;;;;9.30;4.03;;;;;;;;;;5037746;28;20221;-79
2024/01/26 05:29:38;;;;;;;6.47;3.30;;;;;;;;;;5038808;28;20173;-79
2024/01/26 05:32:05;;;;;;;12.37;4.70;;;;;;;;;;5041287;28;20215;-79
2024/01/26 05:34:31;;;;;;;13.17;3.73;;;;;;;;;;5038771;28;20236;-78
2024/01/26 05:36:57;;;;;;;15.63;3.83;;;;;;;;;;5040749;28;20638;-77
2024/01/26 05:39:23;;;;;;;13.97;4.43;;;;;;;;;;5041650;28;20187;-79
2024/01/26 05:41:49;;;;;;;15.67;4.53;;;;;;;;;;5037670;28;20183;-77
2024/01/26 05:44:15;;;;;;;16.50;3.47;;;;;;;;;;5040050;28;20243;-78
2024/01/26 05:46:41;;;;;;;9.83;4.13;;;;;;;;;;5037528;28;20207;-78
2024/01/26 05:49:07;;;;;;;16.70;3.87;;;;;;;;;;5039410;28;20689;-77
2024/01/26 05:51:33;;;;;;;9.27;3.60;;;;;;;;;;5040434;28;20236;-79
2024/01/26 05:53:59;;;;;;;13.53;4.03;;;;;;;;;;5036926;28;20203;-79
2024/01/26 05:56:26;;;;;;;10.47;3.77;;;;;;;;;;5042053;28;20246;-79
2024/01/26 05:58:52;;;;;;;13.67;4.20;;;;;;;;;;5041557;28;20264;-77
2024/01/26 06:01:18;;;;;;;14.83;4.70;;;;;;;;;;5041710;28;20204;-79
2024/01/26 06:03:44;;;;;;;9.97;3.80;;;;;;;;;;5042111;28;20246;-78
2024/01/26 06:06:10;;;;;;;14.00;4.70;;;;;;;;;;5036219;28;20185;-79
2024/01/26 06:08:37;;;;;;;11.77;3.83;;;;;;;;;;5038038;28;20176;-79
2024/01/26 06:11:05;;;;;;;18.87;4.10;;;;;;;;;;5039949;28;20237;-79
2024/01/26 06:13:31;;;;;;;17.13;4.73;;;;;;;;;;5038144;28;20208;-80
2024/01/26 06:15:57;;;;;;;12.97;4.57;;;;;;;;;;5046002;28;20227;-79
2024/01/26 06:18:23;;;;;;;10.57;3.90;;;;;;;;;;5040020;28;20208;-79
2024/01/26 06:20:49;;;;;;;10.73;4.83;;;;;;;;;;5039325;28;20176;-80
2024/01/26 06:23:15;;;;;;;19.63;4.37;;;;;;;;;;5041400;28;20210;-79
2024/01/26 06:25:41;;;;;;;11.47;4.17;;;;;;;;;;5043301;28;20215;-80
2024/01/26 06:28:07;;;;;;;13.83;4.17;;;;;;;;;;5040539;28;20239;-79
2024/01/26 06:30:33;;;;;;;13.80;5.30;;;;;;;;;;5040823;28;20270;-79
2024/01/26 06:32:59;;;;;;;16.87;4.20;;;;;;;;;;5040556;28;20603;-79
2024/01/26 06:35:25;;;;;;;13.57;4.27;;;;;;;;;;5037221;28;20211;-79
2024/01/26 06:37:51;;;;;;;14.90;4.73;;;;;;;;;;5041596;28;20229;-78
2024/01/26 06:40:17;;;;;;;13.97;4.30;;;;;;;;;;5040372;28;20218;-79
2024/01/26 06:42:43;;;;;;;15.67;4.47;;;;;;;;;;5040014;28;20223;-78
2024/01/26 06:45:10;;;;;;;11.33;4.17;;;;;;;;;;5040358;28;20222;-79
2024/01/26 06:47:36;;;;;;;12.70;4.10;;;;;;;;;;5040611;28;20173;-79
2024/01/26 06:50:03;;;;;;;15.37;4.80;;;;;;;;;;5043870;28;20696;-80
2024/01/26 06:52:29;;;;;;;16.00;4.30;;;;;;;;;;5040836;28;20215;-79
2024/01/26 06:54:55;;;;;;;15.80;5.80;;;;;;;;;;5037242;28;20309;-79
2024/01/26 06:57:21;;;;;;;14.67;4.80;;;;;;;;;;5045131;28;20630;-79
2024/01/26 06:59:47;;;;;;;14.53;5.13;;;;;;;;;;5041552;28;20180;-78
2024/01/26 07:02:13;;;;;;;11.23;4.30;;;;;;;;;;5046129;28;20207;-80
2024/01/26 07:04:39;;;;;;;17.60;5.23;;;;;;;;;;5046818;28;20233;-79
2024/01/26 07:07:05;;;;;;;19.23;4.80;;;;;;;;;;5045101;28;20657;-80
2024/01/26 07:09:31;;;;;;;13.80;4.63;;;;;;;;;;5042910;28;20233;-80
2024/01/26 07:11:58;;;;;;;14.07;5.53;;;;;;;;;;5044334;28;20218;-79
2024/01/26 07:14:24;;;;;;;20.13;5.47;;;;;;;;;;5044213;28;20291;-79
2024/01/26 07:16:50;;;;;;;14.67;5.40;;;;;;;;;;5044959;28;20243;-78
2024/01/26 07:19:16;;;;;;;10.33;4.50;;;;;;;;;;5042023;28;20206;-77
2024/01/26 07:21:43;;;;;;;10.73;4.37;;;;;;;;;;5042795;28;20200;-78
2024/01/26 07:24:09;;;;;;;15.20;4.53;;;;;;;;;;5040251;28;20205;-77
2024/01/26 07:26:35;;;;;;;13.00;4.33;;;;;;;;;;5041236;28;20184;-80
2024/01/26 07:29:01;;;;;;;10.73;3.90;;;;;;;;;;5046993;28;20215;-79
2024/01/26 07:31:27;;;;;;;16.23;4.13;;;;;;;;;;5043717;28;20321;-78
2024/01/26 07:33:53;;;;;;;11.47;4.83;;;;;;;;;;5047249;28;20220;-79
2024/01/26 07:36:19;;;;;;;8.93;4.07;;;;;;;;;;5047858;28;20278;-77
2024/01/26 07:38:45;;;;;;;11.53;4.70;;;;;;;;;;5050425;28;20210;-78
2024/01/26 07:41:11;;;;;;;15.37;5.57;;;;;;;;;;5047083;28;20227;-79
2024/01/26 07:43:37;;;;;;;14.57;4.57;;;;;;;;;;5045469;28;20572;-78
2024/01/26 07:46:03;;;;;;;15.97;4.57;;;;;;;;;;5044873;28;20226;-78
2024/01/26 07:48:29;;;;;;;19.77;5.90;;;;;;;;;;5046039;28;20282;-78
2024/01/26 07:50:55;;;;;;;11.70;4.60;;;;;;;;;;5049907;28;20180;-79
2024/01/26 07:53:21;;;;;;;17.80;5.40;;;;;;;;;;5046018;28;20243;-79
2024/01/26 07:55:47;;;;;;;13.20;4.67;;;;;;;;;;5055020;28;20215;-79
2024/01/26 07:58:13;;;;;;;12.23;4.47;;;;;;;;;;5052893;28;20241;-79
2024/01/26 08:00:39;;;;;;;13.43;5.13;;;;;;;;;;5044075;28;20235;-78
2024/01/26 08:03:05;;;;;;;9.73;4.40;;;;;;;;;;5046324;28;20531;-78
2024/01/26 08:05:31;;;;;;;19.87;4.30;;;;;;;;;;5050160;28;20294;-78
2024/01/26 08:07:57;;;;;;;17.47;5.97;;;;;;;;;;5045942;28;20275;-79
2024/01/26 08:10:23;;;;;;;12.73;4.97;;;;;;;;;;5041567;28;20266;-78
2024/01/26 08:12:50;;;;;;;11.63;5.20;;;;;;;;;;5039069;28;20213;-78
2024/01/26 08:15:17;;;;;;;14.23;4.53;;;;;;;;;;5043520;28;20187;-79
2024/01/26 08:17:43;;;;;;;15.83;4.87;;;;;;;;;;5035333;28;20288;-77
2024/01/26 08:20:09;;;;;;;11.27;4.47;;;;;;;;;;5037623;28;20232;-78
2024/01/26 08:22:35;;;;;;;17.90;4.27;;;;;;;;;;5049147;28;20208;-79
2024/01/26 08:25:01;;;;;;;14.90;4.77;;;;;;;;;;5037894;28;20715;-78
2024/01/26 08:27:27;;;;;;;15.20;4.23;;;;;;;;;;5045332;28;20272;-79
2024/01/26 08:29:54;;;;;;;13.33;5.30;;;;;;;;;;5049569;28;20184;-79
2024/01/26 08:32:20;;;;;;;12.70;4.17;;;;;;;;;;5048755;28;20211;-78
2024/01/26 08:34:46;;;;;;;14.33;5.50;;;;;;;;;;5048919;28;20505;-79
2024/01/26 08:37:12;;;;;;;16.03;4.50;;;;;;;;;;5050557;28;20588;-79
2024/01/26 08:39:38;;;;;;;14.43;4.10;;;;;;;;;;5040473;28;20250;-79
2024/01/26 08:42:04;;;;;;;11.33;4.83;;;;;;;;;;5039194;28;20225;-78
2024/01/26 08:44:31;;;;;;;11.07;4.43;;;;;;;;;;5034652;28;20236;-79
2024/01/26 08:46:57;;;;;;;20.83;5.70;;;;;;;;;;5038918;28;20204;-79
2024/01/26 08:49:23;;;;;;;15.17;5.23;;;;;;;;;;5039831;28;20436;-79
2024/01/26 08:51:51;;;;;;;15.27;4.93;;;;;;;;;;5042057;28;20200;-79
2024/01/26 08:54:18;;;;;;;17.33;4.77;;;;;;;;;;5040197;28;20346;-78
2024/01/26 08:56:45;;;;;;;13.83;4.70;;;;;;;;;;5040634;28;20211;-78
2024/01/26 08:59:11;;;;;;;14.77;4.00;;;;;;;;;;5039098;28;20211;-80
2024/01/26 09:01:38;;;;;;;15.80;4.23;;;;;;;;;;5039197;28;20291;-81
2024/01/26 09:04:08;;;;;;;16.23;4.87;;;;;;;;;;5052397;28;20213;-80
2024/01/26 09:06:37;;;;;;;17.20;4.53;;;;;;;;;;5050300;28;20222;-80
2024/01/26 09:09:04;;;;;;;15.73;4.47;;;;;;;;;;5055251;28;20184;-80
2024/01/26 09:11:30;;;;;;;14.37;4.63;;;;;;;;;;5052839;28;20212;-79
2024/01/26 09:13:57;;;;;;;13.63;4.67;;;;;;;;;;5048564;28;20789;-79
2024/01/26 09:16:23;;;;;;;14.67;4.53;;;;;;;;;;5047475;28;20236;-80
2024/01/26 09:18:49;;;;;;;14.53;4.83;;;;;;;;;;5041348;28;20235;-81
2024/01/26 09:21:15;;;;;;;14.27;3.67;;;;;;;;;;5048225;28;20234;-81
2024/01/26 09:23:44;;;;;;;12.67;4.37;;;;;;;;;;5043790;28;20207;-81
2024/01/26 09:26:11;;;;;;;13.13;4.63;;;;;;;;;;5043650;28;20211;-80
2024/01/26 09:28:37;;;;;;;13.30;4.40;;;;;;;;;;5039619;28;20204;-80
2024/01/26 09:31:03;;;;;;;15.60;5.03;;;;;;;;;;5040811;28;20209;-79
2024/01/26 09:33:29;;;;;;;14.97;5.17;;;;;;;;;;5046236;28;20216;-80
2024/01/26 09:35:56;;;;;;;9.40;4.07;;;;;;;;;;5054570;28;20252;-80
2024/01/26 09:38:22;;;;;;;11.20;4.60;;;;;;;;;;5059814;28;20246;-80
2024/01/26 09:40:48;;;;;;;13.43;4.63;;;;;;;;;;5056594;28;20228;-78
2024/01/26 09:43:15;;;;;;;11.90;3.83;;;;;;;;;;5054522;28;20207;-79
2024/01/26 09:45:41;;;;;;;12.00;4.27;;;;;;;;;;5052132;28;20215;-80
2024/01/26 09:48:07;;;;;;;12.70;4.60;;;;;;;;;;5042039;28;20188;-81
2024/01/26 09:50:33;;;;;;;11.60;4.13;;;;;;;;;;5043522;28;20230;-80
2024/01/26 09:52:59;;;;;;;17.27;5.17;;;;;;;;;;5050956;28;20208;-80
2024/01/26 09:55:26;;;;;;;13.47;4.40;;;;;;;;;;5043985;28;20217;-80
2024/01/26 09:57:55;;;;;;;12.97;4.00;;;;;;;;;;5041660;28;20262;-79
2024/01/26 10:00:21;;;;;;;12.00;4.60;;;;;;;;;;5046150;28;20184;-79
2024/01/26 10:02:47;;;;;;;8.40;3.97;;;;;;;;;;5039037;28;20370;-78
2024/01/26 10:05:16;;;;;;;11.07;3.73;;;;;;;;;;5035648;28;20275;-79
2024/01/26 10:07:44;;;;;;;8.57;4.20;;;;;;;;;;5035805;28;20204;-80
2024/01/26 10:10:10;;;;;;;9.73;3.80;;;;;;;;;;5033109;28;20201;-79
2024/01/26 10:12:36;;;;;;;9.60;3.47;;;;;;;;;;5032821;28;20219;-80
2024/01/26 10:15:08;;;;;;;9.23;3.70;;;;;;;;;;5052332;28;20796;-78
2024/01/26 10:17:34;;;;;;;12.03;3.77;;;;;;;;;;5038981;28;20224;-80
2024/01/26 10:20:14;;;;;;;11.60;4.57;;;;;;;;;;5040823;28;20203;-81
2024/01/26 10:22:41;;;;;;;12.97;3.90;;;;;;;;;;5023175;28;20705;-81
2024/01/26 10:25:07;;;;;;;9.27;4.27;;;;;;;;;;5021699;28;20216;-81
2024/01/26 10:27:34;;;;;;;12.87;4.47;;;;;;;;;;5022774;28;20208;-80
2024/01/26 10:30:03;;;;;;;9.90;4.00;;;;;;;;;;5026291;28;20169;-81
2024/01/26 10:32:31;;;;;;;10.53;4.23;;;;;;;;;;5033591;28;20204;-82
2024/01/26 10:34:58;;;;;;;8.37;3.50;;;;;;;;;;5038689;28;20209;-82
2024/01/26 10:37:27;;;;;;;13.10;4.13;;;;;;;;;;5039971;28;20222;-82
2024/01/26 10:39:54;;;;;;;14.10;4.63;;;;;;;;;;5036860;28;20910;-81
2024/01/26 10:42:20;;;;;;;18.43;4.67;;;;;;;;;;5035083;28;20828;-82
2024/01/26 10:44:48;;;;;;;13.97;4.47;;;;;;;;;;5037950;28;20211;-81
2024/01/26 10:47:15;;;;;;;13.43;5.43;;;;;;;;;;5045577;28;20694;-82
2024/01/26 10:49:45;;;;;;;13.37;4.30;;;;;;;;;;5022837;28;20209;-80
2024/01/26 10:52:14;;;;;;;9.10;4.00;;;;;;;;;;5027927;28;20236;-80
2024/01/26 10:54:40;;;;;;;10.80;3.77;;;;;;;;;;5042324;28;20216;-80
2024/01/26 10:57:07;;;;;;;9.97;4.33;;;;;;;;;;5036568;28;20209;-81
2024/01/26 10:59:34;;;;;;;7.97;3.10;;;;;;;;;;5040998;28;20682;-81
2024/01/26 11:02:01;;;;;;;12.33;4.40;;;;;;;;;;5041482;28;20211;-81
2024/01/26 11:04:30;;;;;;;13.57;4.00;;;;;;;;;;5041658;28;20209;-81
2024/01/26 11:06:58;;;;;;;7.40;3.47;;;;;;;;;;5037549;28;20220;-82
2024/01/26 11:09:25;;;;;;;13.20;5.37;;;;;;;;;;5035077;28;20185;-83
2024/01/26 11:11:52;;;;;;;11.97;4.73;;;;;;;;;;5039182;28;20185;-80
2024/01/26 11:14:26;;;;;;;15.70;5.73;;;;;;;;;;5041371;28;20528;-83
2024/01/26 11:16:52;;;;;;;11.73;4.47;;;;;;;;;;5036560;28;20214;-81
2024/01/26 11:19:22;;;;;;;11.83;4.53;;;;;;;;;;5051815;28;20597;-80
2024/01/26 11:21:48;;;;;;;14.80;4.03;;;;;;;;;;5039504;28;20228;-79
2024/01/26 11:24:16;;;;;;;8.93;3.37;;;;;;;;;;5034415;28;20210;-78
2024/01/26 11:26:42;;;;;;;7.60;3.10;;;;;;;;;;5041309;28;20200;-77
2024/01/26 11:29:14;;;;;;;9.53;3.63;;;;;;;;;;5027679;28;20220;-77
2024/01/26 11:31:44;;;;;;;11.63;3.50;;;;;;;;;;5027615;28;20690;-79
2024/01/26 11:34:19;;;;;;;10.03;3.27;;;;;;;;;;5033472;28;20220;-78
2024/01/26 11:36:46;;;;;;;7.97;3.00;;;;;;;;;;5047528;28;20223;-79
2024/01/26 11:39:14;;;;;;;6.03;3.33;;;;;;;;;;5054146;28;20737;-82
2024/01/26 11:41:45;;;;;;;5.73;3.43;;;;;;;;;;5027837;28;20165;-78
2024/01/26 11:44:21;;;;;;;6.07;3.53;;;;;;;;;;5047143;28;20211;-81
2024/01/26 11:46:48;;;;;;;6.67;3.77;;;;;;;;;;5046564;28;20306;-81
2024/01/26 11:49:14;;;;;;;9.90;3.70;;;;;;;;;;5034496;28;20208;-81
2024/01/26 11:51:40;;;;;;;8.07;3.33;;;;;;;;;;5036258;28;20231;-81
2024/01/26 11:54:07;;;;;;;8.87;3.47;;;;;;;;;;5043106;28;20590;-79
2024/01/26 11:56:33;;;;;;;7.13;3.37;;;;;;;;;;5045810;28;20210;-80
2024/01/26 11:58:59;;;;;;;4.33;2.90;;;;;;;;;;5046144;28;20228;-79
2024/01/26 12:01:25;;;;;;;8.40;3.03;;;;;;;;;;5037970;28;20248;-81
2024/01/26 12:03:51;;;;;;;12.33;3.60;;;;;;;;;;5034296;28;20367;-80
2024/01/26 12:06:18;;;;;;;6.03;3.17;;;;;;;;;;5044777;28;20181;-81
2024/01/26 12:08:44;;;;;;;7.93;3.20;;;;;;;;;;5046188;28;20188;-78
2024/01/26 12:11:13;;;;;;;7.93;3.70;;;;;;;;;;5046242;28;20234;-81
2024/01/26 12:13:39;;;;;;;5.40;3.30;;;;;;;;;;5042883;28;20212;-79
2024/01/26 12:16:10;;;;;;;8.23;3.73;;;;;;;;;;5043096;28;20794;-78
2024/01/26 12:18:36;;;;;;;7.43;3.03;;;;;;;;;;5043382;28;20306;-81
2024/01/26 12:21:03;;;;;;;6.53;3.43;;;;;;;;;;5034449;28;20184;-82
2024/01/26 12:23:29;;;;;;;5.73;3.40;;;;;;;;;;5043871;28;20212;-80
2024/01/26 12:25:55;;;;;;;10.60;3.83;;;;;;;;;;5047170;28;20846;-80
2024/01/26 12:28:21;;;;;;;8.10;3.73;;;;;;;;;;5041637;28;20242;-80
2024/01/26 12:30:50;;;;;;;6.97;4.33;;;;;;;;;;5036453;28;20482;-80
2024/01/26 12:33:16;;;;;;;6.53;3.47;;;;;;;;;;5043210;28;20200;-81
2024/01/26 12:35:42;;;;;;;10.97;3.33;;;;;;;;;;5033940;28;20172;-81
2024/01/26 12:38:09;;;;;;;8.60;2.90;;;;;;;;;;5050205;28;20242;-80
2024/01/26 12:40:35;;;;;;;6.03;3.00;;;;;;;;;;5037523;28;20209;-79
2024/01/26 12:43:01;;;;;;;8.17;3.73;;;;;;;;;;5044239;28;20304;-80
2024/01/26 12:45:30;;;;;;;6.73;3.50;;;;;;;;;;5029742;28;20308;-80
2024/01/26 12:47:56;;;;;;;7.40;3.27;;;;;;;;;;5032291;28;20185;-79
2024/01/26 12:50:24;;;;;;;6.10;2.63;;;;;;;;;;5048283;28;20776;-80
2024/01/26 12:52:50;;;;;;;8.20;3.13;;;;;;;;;;5035152;28;20227;-79
2024/01/26 12:55:17;;;;;;;5.63;3.10;;;;;;;;;;5053532;28;20259;-80
2024/01/26 12:57:44;;;;;;;7.63;3.20;;;;;;;;;;5052716;28;20212;-80
2024/01/26 13:00:10;;;;;;;5.43;3.50;;;;;;;;;;5060342;28;20168;-80
2024/01/26 13:02:36;;;;;;;8.10;3.47;;;;;;;;;;5039965;28;20204;-80
2024/01/26 13:05:02;;;;;;;7.20;3.60;;;;;;;;;;5023069;28;20225;-80
2024/01/26 13:07:30;;;;;;;4.93;3.30;;;;;;;;;;5037691;28;20212;-80
2024/01/26 13:09:57;;;;;;;5.57;3.43;;;;;;;;;;5037455;28;20592;-80
2024/01/26 13:12:23;;;;;;;6.97;3.83;;;;;;;;;;5057039;28;20519;-79
2024/01/26 13:14:49;;;;;;;8.13;3.70;;;;;;;;;;5043170;28;20203;-79
2024/01/26 13:17:15;;;;;;;6.10;3.17;;;;;;;;;;5049823;28;20690;-80
2024/01/26 13:19:41;;;;;;;7.10;4.30;;;;;;;;;;5037416;28;20269;-80
2024/01/26 13:22:08;;;;;;;5.03;2.80;;;;;;;;;;5042424;28;20227;-81
2024/01/26 13:24:37;;;;;;;6.83;3.30;;;;;;;;;;5041200;28;20318;-80
2024/01/26 13:27:04;;;;;;;5.33;3.17;;;;;;;;;;5045994;28;20271;-81
2024/01/26 13:29:30;;;;;;;3.73;2.70;;;;;;;;;;5046066;28;20274;-80
2024/01/26 13:31:56;;;;;;;5.73;2.90;;;;;;;;;;5039530;28;20216;-80
2024/01/26 13:34:22;;;;;;;6.17;2.60;;;;;;;;;;5044342;28;20217;-80
2024/01/26 13:36:48;;;;;;;5.40;3.23;;;;;;;;;;5050171;28;20331;-79
2024/01/26 13:39:14;;;;;;;6.17;3.03;;;;;;;;;;5036806;28;20176;-81
2024/01/26 13:41:40;;;;;;;4.67;2.83;;;;;;;;;;5047880;28;20204;-80
2024/01/26 13:44:07;;;;;;;4.17;2.60;;;;;;;;;;5047679;28;20207;-80
2024/01/26 13:46:34;;;;;;;7.87;2.90;;;;;;;;;;5043175;28;20224;-80
2024/01/26 13:49:00;;;;;;;3.60;2.30;;;;;;;;;;5048201;28;20216;-80
2024/01/26 13:51:26;;;;;;;6.93;2.67;;;;;;;;;;5048641;28;20214;-80
2024/01/26 13:53:52;;;;;;;3.87;2.53;;;;;;;;;;5046950;28;20338;-80
2024/01/26 13:56:18;;;;;;;4.30;2.37;;;;;;;;;;5046775;28;20242;-79
2024/01/26 13:58:45;;;;;;;5.10;2.30;;;;;;;;;;5047562;28;20211;-77
2024/01/26 14:01:11;;;;;;;3.93;2.40;;;;;;;;;;5047424;28;20219;-80
2024/01/26 14:03:39;;;;;;;4.47;2.17;;;;;;;;;;5050414;28;20220;-81
2024/01/26 14:06:08;;;;;;;4.70;2.37;;;;;;;;;;5044529;28;20252;-80
2024/01/26 14:08:34;;;;;;;4.23;2.00;;;;;;;;;;5050475;28;20263;-80
2024/01/26 14:11:00;;;;;;;5.37;2.37;;;;;;;;;;5045979;28;20212;-80
2024/01/26 14:13:26;;;;;;;3.70;2.30;;;;;;;;;;5050232;28;20228;-80
2024/01/26 14:15:52;;;;;;;2.70;1.97;;;;;;;;;;5048632;28;20213;-79
2024/01/26 14:18:20;;;;;;;3.27;1.90;;;;;;;;;;5049817;28;20217;-80
2024/01/26 14:20:46;;;;;;;3.63;2.23;;;;;;;;;;5060157;28;20180;-80
2024/01/26 14:23:12;;;;;;;3.97;2.10;;;;;;;;;;5058621;28;20223;-80
2024/01/26 14:25:40;;;;;;;2.30;1.60;;;;;;;;;;5050584;28;20207;-79
2024/01/26 14:28:08;;;;;;;3.30;1.80;;;;;;;;;;5054562;28;20208;-80